createdAt,value
2022-12-13T00:01:17.359Z,16.13
2022-12-13T00:06:38.368Z,15.27
2022-12-13T00:12:01.522Z,20.35
2022-12-13T00:17:29.001Z,18.35
2022-12-13T00:22:54.700Z,18.75
2022-12-13T00:28:19.256Z,14.06
2022-12-13T00:33:44.431Z,16.94
2022-12-13T00:39:08.741Z,13.45
2022-12-13T00:44:33.701Z,15.38
2022-12-13T00:49:59.148Z,12.19
2022-12-13T00:55:25.186Z,11.56
2022-12-13T01:00:46.193Z,15.15
2022-12-13T01:06:17.459Z,12.33
2022-12-13T01:11:37.262Z,14.97
2022-12-13T01:17:02.685Z,11.99
2022-12-13T01:22:28.492Z,15.97
2022-12-13T01:27:54.239Z,14.90
2022-12-13T01:33:20.138Z,16.28
2022-12-13T01:38:43.987Z,11.50
2022-12-13T01:44:10.263Z,14.71
2022-12-13T01:50:03.913Z,16.12
2022-12-13T01:55:30.271Z,11.50
2022-12-13T02:00:55.602Z,12.90
2022-12-13T02:06:20.273Z,15.57
2022-12-13T02:11:44.269Z,13.65
2022-12-13T02:17:08.272Z,11.13
2022-12-13T02:22:31.303Z,16.59
2022-12-13T02:28:03.420Z,13.67
2022-12-13T02:33:31.479Z,16.08
2022-12-13T02:38:57.617Z,13.95
2022-12-13T02:44:23.184Z,12.07
2022-12-13T02:49:48.321Z,11.99
2022-12-13T02:55:14.429Z,15.04
2022-12-13T03:00:39.644Z,14.88
2022-12-13T03:06:03.639Z,10.58
2022-12-13T03:11:28.128Z,13.25
2022-12-13T03:16:51.080Z,11.86
2022-12-13T03:22:11.837Z,13.21
2022-12-13T03:27:34.702Z,13.47
2022-12-13T03:32:55.279Z,11.16
2022-12-13T03:38:22.294Z,10.50
2022-12-13T03:43:44.608Z,11.44
2022-12-13T03:49:12.433Z,12.23
2022-12-13T03:54:30.293Z,10.41
2022-12-13T03:59:56.539Z,11.03
2022-12-13T04:05:21.279Z,14.47
2022-12-13T04:10:47.030Z,11.04
2022-12-13T04:16:12.003Z,13.36
2022-12-13T04:21:38.186Z,13.51
2022-12-13T04:27:01.864Z,11.08
2022-12-13T04:32:27.464Z,8.53
2022-12-13T04:37:51.622Z,11.10
2022-12-13T04:43:19.022Z,12.23
2022-12-13T04:48:42.228Z,10.68
2022-12-13T04:54:23.915Z,11.72
2022-12-13T04:59:32.509Z,9.01
2022-12-13T05:04:59.312Z,12.49
2022-12-13T05:10:35.686Z,13.22
2022-12-13T05:15:47.457Z,11.42
2022-12-13T05:21:16.325Z,12.45
2022-12-13T05:26:38.646Z,12.84
2022-12-13T05:32:03.272Z,13.47
2022-12-13T05:37:26.984Z,14.49
2022-12-13T05:42:50.262Z,12.90
2022-12-13T05:48:15.916Z,10.79
2022-12-13T05:53:40.302Z,16.21
2022-12-13T05:59:04.405Z,11.50
2022-12-13T06:04:28.880Z,10.36
2022-12-13T06:09:49.345Z,11.95
2022-12-13T06:15:22.543Z,14.80
2022-12-13T06:20:39.490Z,14.24
2022-12-13T06:26:02.134Z,13.75
2022-12-13T06:31:25.689Z,11.16
2022-12-13T06:36:49.340Z,9.74
2022-12-13T06:42:12.628Z,8.68
2022-12-13T06:48:36.490Z,16.32
2022-12-13T06:53:58.586Z,16.84
2022-12-13T06:59:20.295Z,13.02
2022-12-13T07:04:46.741Z,12.96
2022-12-13T07:10:12.523Z,13.65
2022-12-13T07:15:36.624Z,12.33
2022-12-13T07:20:58.904Z,10.83
2022-12-13T07:26:24.714Z,15.45
2022-12-13T07:31:45.975Z,14.98
2022-12-13T07:37:30.098Z,13.37
2022-12-13T07:42:32.878Z,15.76
2022-12-13T07:48:00.645Z,12.27
2022-12-13T07:53:28.757Z,14.19
2022-12-13T07:58:50.616Z,19.15
2022-12-13T08:04:12.632Z,16.31
2022-12-13T08:09:36.417Z,17.80
2022-12-13T08:14:59.080Z,14.63
2022-12-13T08:20:24.441Z,18.40
2022-12-13T08:25:46.406Z,17.33
2022-12-13T08:31:09.731Z,16.50
2022-12-13T08:36:32.434Z,18.61
2022-12-13T08:41:55.048Z,19.28
2022-12-13T08:47:24.792Z,18.50
2022-12-13T08:52:42.793Z,19.26
2022-12-13T08:58:05.004Z,16.94
2022-12-13T09:03:29.892Z,17.81
2022-12-13T09:08:54.748Z,20.47
2022-12-13T09:14:23.592Z,16.70
2022-12-13T09:19:41.060Z,23.78
2022-12-13T09:25:03.939Z,24.46
2022-12-13T09:30:25.190Z,18.60
2022-12-13T09:35:47.627Z,19.44
2022-12-13T09:41:19.857Z,17.93
2022-12-13T09:46:45.159Z,19.73
2022-12-13T09:52:10.806Z,21.01
2022-12-13T09:57:31.891Z,21.11
2022-12-13T10:02:51.039Z,18.39
2022-12-13T10:08:17.452Z,20.57
2022-12-13T10:13:40.440Z,18.36
2022-12-13T10:19:03.668Z,19.34
2022-12-13T10:24:37.099Z,17.80
2022-12-13T10:30:10.461Z,20.49
2022-12-13T10:35:35.830Z,18.41
2022-12-13T10:41:01.419Z,16.81
2022-12-13T10:46:43.637Z,15.85
2022-12-13T10:52:16.437Z,20.01
2022-12-13T10:57:41.397Z,17.39
2022-12-13T11:03:07.251Z,16.75
2022-12-13T11:08:30.223Z,15.51
2022-12-13T11:13:55.284Z,18.46
2022-12-13T11:19:18.019Z,13.62
2022-12-13T11:24:40.835Z,16.15
2022-12-13T11:30:03.433Z,14.00
2022-12-13T11:35:30.103Z,14.10
2022-12-13T11:40:59.506Z,14.19
2022-12-13T11:46:26.332Z,16.11
2022-12-13T11:51:51.987Z,13.42
2022-12-13T11:57:14.273Z,14.57
2022-12-13T12:02:43.424Z,14.11
2022-12-13T12:08:32.434Z,11.99
2022-12-13T12:13:34.535Z,12.07
2022-12-13T12:19:01.513Z,13.37
2022-12-13T12:24:26.499Z,11.14
2022-12-13T12:29:51.061Z,11.40
2022-12-13T12:35:32.260Z,13.71
2022-12-13T12:41:16.176Z,11.76
2022-12-13T12:47:18.136Z,12.65
2022-12-13T12:52:12.145Z,12.17
2022-12-13T12:57:38.454Z,10.90
2022-12-13T13:03:14.716Z,10.88
2022-12-13T13:08:29.582Z,11.37
2022-12-13T13:13:54.942Z,12.75
2022-12-13T13:19:25.547Z,14.07
2022-12-13T13:25:06.086Z,11.12
2022-12-13T13:30:41.586Z,9.47
2022-12-13T13:36:29.072Z,9.04
2022-12-13T13:42:06.134Z,10.04
2022-12-13T13:47:33.247Z,9.67
2022-12-13T13:53:00.853Z,9.20
2022-12-13T13:58:42.829Z,7.69
2022-12-13T14:04:38.592Z,8.68
2022-12-13T14:10:31.234Z,10.59
2022-12-13T14:16:05.823Z,8.52
2022-12-13T14:21:58.213Z,11.17
2022-12-13T14:27:28.470Z,10.85
2022-12-13T14:32:54.833Z,8.40
2022-12-13T14:38:21.711Z,6.36
2022-12-13T14:43:49.848Z,8.85
2022-12-13T14:49:08.040Z,6.18
2022-12-13T14:54:32.172Z,4.98
2022-12-13T14:59:58.218Z,5.25
2022-12-13T15:05:31.718Z,6.40
2022-12-13T15:11:02.167Z,5.74
2022-12-13T15:16:22.643Z,5.19
2022-12-13T15:21:43.951Z,5.66
2022-12-13T15:27:13.079Z,7.36
2022-12-13T15:32:34.423Z,5.37
2022-12-13T15:38:07.387Z,6.43
2022-12-13T15:43:28.930Z,4.95
2022-12-13T15:48:53.262Z,4.43
2022-12-13T15:54:15.085Z,5.39
2022-12-13T15:59:38.661Z,7.51
2022-12-13T16:05:00.693Z,5.71
2022-12-13T16:10:34.505Z,5.72
2022-12-13T16:15:59.870Z,7.41
2022-12-13T16:21:30.248Z,12.84
2022-12-13T16:26:52.616Z,14.89
2022-12-13T16:32:15.701Z,7.25
2022-12-13T16:37:41.866Z,8.31
2022-12-13T16:43:08.023Z,8.17
2022-12-13T16:48:31.201Z,6.38
2022-12-13T16:53:58.252Z,7.05
2022-12-13T16:59:25.672Z,4.81
2022-12-13T17:04:46.502Z,5.42
2022-12-13T17:10:10.065Z,9.62
2022-12-13T17:15:30.905Z,4.79
2022-12-13T17:20:58.655Z,7.01
2022-12-13T17:26:25.647Z,9.07
2022-12-13T17:31:52.341Z,8.61
2022-12-13T17:37:19.282Z,7.91
2022-12-13T17:42:41.940Z,11.82
2022-12-13T17:48:08.345Z,8.07
2022-12-13T17:53:31.754Z,9.14
2022-12-13T17:58:56.489Z,8.42
2022-12-13T18:04:18.901Z,9.57
2022-12-13T18:09:45.254Z,7.49
2022-12-13T18:15:10.760Z,9.56
2022-12-13T18:20:36.367Z,6.61
2022-12-13T18:25:59.755Z,6.10
2022-12-13T18:31:22.198Z,7.97
2022-12-13T18:36:46.385Z,8.27
2022-12-13T18:42:07.011Z,8.92
2022-12-13T18:47:31.290Z,9.83
2022-12-13T18:52:52.268Z,5.73
2022-12-13T18:58:15.187Z,5.87
2022-12-13T19:03:39.070Z,7.67
2022-12-13T19:09:06.300Z,9.28
2022-12-13T19:14:28.668Z,5.18
2022-12-13T19:19:49.406Z,7.27
2022-12-13T19:25:11.232Z,7.83
2022-12-13T19:30:34.033Z,6.90
2022-12-13T19:36:00.313Z,5.86
2022-12-13T19:41:26.730Z,6.16
2022-12-13T19:46:52.423Z,6.06
2022-12-13T19:52:15.706Z,5.04
2022-12-13T19:57:42.189Z,5.96
2022-12-13T20:03:03.464Z,6.85
2022-12-13T20:08:28.810Z,5.59
2022-12-13T20:13:53.828Z,6.14
2022-12-13T20:19:18.839Z,4.82
2022-12-13T20:24:43.230Z,4.22
2022-12-13T20:30:08.562Z,5.45
2022-12-13T20:35:34.661Z,9.63
2022-12-13T20:41:00.797Z,6.94
2022-12-13T20:46:23.117Z,7.33
2022-12-13T20:51:48.836Z,5.28
2022-12-13T20:57:09.941Z,6.38
2022-12-13T21:02:29.993Z,4.32
2022-12-13T21:07:51.854Z,7.51
2022-12-13T21:13:12.936Z,3.73
2022-12-13T21:18:38.306Z,4.34
2022-12-13T21:24:00.875Z,8.10
2022-12-13T21:29:22.749Z,5.44
2022-12-13T21:34:47.642Z,4.43
2022-12-13T21:40:11.449Z,4.67
2022-12-13T21:45:35.410Z,4.17
2022-12-13T21:51:02.309Z,4.99
2022-12-13T21:56:29.596Z,4.98
2022-12-13T22:01:55.234Z,4.17
2022-12-13T22:07:18.698Z,2.16
2022-12-13T22:12:41.200Z,3.67
2022-12-13T22:18:06.271Z,4.71
2022-12-13T22:23:36.589Z,5.16
2022-12-13T22:29:06.572Z,4.10
2022-12-13T22:34:34.410Z,5.37
2022-12-13T22:40:01.005Z,3.49
2022-12-13T22:45:25.469Z,3.60
2022-12-13T22:50:49.273Z,6.08
2022-12-13T22:56:14.720Z,5.38
2022-12-13T23:01:35.593Z,4.50
2022-12-13T23:07:00.894Z,4.10
2022-12-13T23:12:24.081Z,4.00
2022-12-13T23:17:50.089Z,4.33
2022-12-13T23:23:14.265Z,5.00
2022-12-13T23:28:41.526Z,2.85
2022-12-13T23:34:06.906Z,5.02
2022-12-13T23:39:28.145Z,3.91
2022-12-13T23:44:55.626Z,3.90
2022-12-13T23:50:16.452Z,3.92
2022-12-13T23:55:43.263Z,4.40
